createdAt,value
2018-04-06T00:00:17.782Z,73.24
2018-04-06T00:01:17.781Z,73.28
2018-04-06T00:02:17.778Z,73.2
2018-04-06T00:03:17.784Z,73.01
2018-04-06T00:04:17.782Z,72.56
2018-04-06T00:05:17.787Z,72.96
2018-04-06T00:06:17.795Z,73.33
2018-04-06T00:07:17.791Z,72.79
2018-04-06T00:08:17.799Z,73.01
2018-04-06T00:09:17.800Z,73.18
2018-04-06T00:10:17.813Z,74.29
2018-04-06T00:11:17.841Z,74.58
2018-04-06T00:12:17.806Z,74.88
2018-04-06T00:13:17.814Z,75.08
2018-04-06T00:14:17.809Z,74.48
2018-04-06T00:15:17.818Z,74.21
2018-04-06T00:16:17.826Z,75.26
2018-04-06T00:17:17.821Z,75.46
2018-04-06T00:18:17.827Z,74.64
2018-04-06T00:19:17.833Z,74.9
2018-04-06T00:20:17.832Z,74.71
2018-04-06T00:21:17.836Z,74.64
2018-04-06T00:22:17.864Z,75.01
2018-04-06T00:23:17.841Z,74.52
2018-04-06T00:24:17.846Z,74.28
2018-04-06T00:25:17.927Z,73.99
2018-04-06T00:26:17.859Z,74.38
2018-04-06T00:27:17.853Z,74.31
2018-04-06T00:28:17.857Z,73.63
2018-04-06T00:29:17.865Z,73.24
2018-04-06T00:30:17.873Z,73.68
2018-04-06T00:31:17.862Z,73.08
2018-04-06T00:32:17.870Z,73.64
2018-04-06T00:33:17.893Z,72.94
2018-04-06T00:34:17.874Z,73.23
2018-04-06T00:35:17.874Z,72.93
2018-04-06T00:36:17.881Z,73.32
2018-04-06T00:37:17.881Z,72.69
2018-04-06T00:38:17.911Z,73.06
2018-04-06T00:39:17.886Z,72.94
2018-04-06T00:40:17.894Z,72.93
2018-04-06T00:41:17.917Z,72.92
2018-04-06T00:42:17.894Z,72.69
2018-04-06T00:43:17.922Z,73.31
2018-04-06T00:44:17.902Z,73.3
2018-04-06T00:45:17.906Z,73.42
2018-04-06T00:46:17.912Z,72.85
2018-04-06T00:47:17.911Z,72.9
2018-04-06T00:48:17.937Z,72.96
2018-04-06T00:49:17.920Z,73.15
2018-04-06T00:50:17.923Z,73.43
2018-04-06T00:51:17.923Z,73.71
2018-04-06T00:52:17.925Z,74.65
2018-04-06T00:53:17.928Z,74.93
2018-04-06T00:54:17.956Z,74.05
2018-04-06T00:55:17.932Z,74.47
2018-04-06T00:56:17.988Z,74.62
2018-04-06T00:57:17.937Z,75.21
2018-04-06T00:58:17.945Z,75.03
2018-04-06T00:59:17.955Z,74.21
2018-04-06T01:00:17.944Z,74.47
2018-04-06T01:01:17.948Z,73.95
2018-04-06T01:02:17.955Z,73.89
2018-04-06T01:03:17.958Z,73.94
2018-04-06T01:04:17.954Z,73.98
2018-04-06T01:05:17.959Z,74.55
2018-04-06T01:06:17.964Z,74.02
2018-04-06T01:07:17.964Z,73.87
2018-04-06T01:08:17.969Z,74.67
2018-04-06T01:09:17.973Z,74.19
2018-04-06T01:10:17.977Z,74.18
2018-04-06T01:11:18.003Z,74.42
2018-04-06T01:12:18.192Z,74.69
2018-04-06T01:13:17.986Z,74.42
2018-04-06T01:14:17.991Z,73.83
2018-04-06T01:15:17.993Z,74.16
2018-04-06T01:16:17.994Z,73.93
2018-04-06T01:17:17.996Z,73.53
2018-04-06T01:18:18.000Z,74.49
2018-04-06T01:19:18.008Z,74.03
2018-04-06T01:20:18.007Z,74.48
2018-04-06T01:21:18.012Z,74.61
2018-04-06T01:22:18.039Z,74.23
2018-04-06T01:23:18.015Z,74.29
2018-04-06T01:24:18.020Z,74.89
2018-04-06T01:25:18.028Z,75.09
2018-04-06T01:26:18.031Z,74.91
2018-04-06T01:27:18.361Z,75.2
2018-04-06T01:28:18.029Z,75.7
2018-04-06T01:29:18.031Z,75.42
2018-04-06T01:30:18.031Z,75.11
2018-04-06T01:31:18.041Z,74.87
2018-04-06T01:32:18.290Z,75.04
2018-04-06T01:33:18.039Z,75.25
2018-04-06T01:34:18.043Z,74.77
2018-04-06T01:35:18.048Z,75.06
2018-04-06T01:36:18.050Z,75.61
2018-04-06T01:37:18.073Z,75.64
2018-04-06T01:38:18.058Z,75.29
2018-04-06T01:39:18.061Z,74.84
2018-04-06T01:40:18.064Z,75.04
2018-04-06T01:41:18.066Z,75.46
2018-04-06T01:42:18.064Z,75.02
2018-04-06T01:43:18.241Z,75.47
2018-04-06T01:44:18.073Z,76.06
2018-04-06T01:45:18.079Z,76.92
2018-04-06T01:46:18.085Z,76.44
2018-04-06T01:47:18.078Z,75.54
2018-04-06T01:48:18.106Z,75.61
2018-04-06T01:49:18.130Z,75.62
2018-04-06T01:50:18.097Z,75.93
2018-04-06T01:51:18.090Z,75.74
2018-04-06T01:52:18.091Z,75.82
2018-04-06T01:53:18.119Z,75.53
2018-04-06T01:54:18.096Z,75.37
2018-04-06T01:55:18.102Z,75.51
2018-04-06T01:56:18.103Z,74.98
2018-04-06T01:57:18.105Z,74.91
2018-04-06T01:58:18.173Z,75.42
2018-04-06T01:59:18.137Z,75.32
2018-04-06T02:00:18.117Z,75.54
2018-04-06T02:01:18.119Z,75.01
2018-04-06T02:02:18.122Z,74.69
2018-04-06T02:03:18.128Z,74.74
2018-04-06T02:04:18.153Z,74.55
2018-04-06T02:05:18.132Z,74.44
2018-04-06T02:06:18.139Z,74.67
2018-04-06T02:07:18.138Z,74.7
2018-04-06T02:08:18.141Z,74.83
2018-04-06T02:09:18.158Z,75.03
2018-04-06T02:10:18.148Z,75.06
2018-04-06T02:11:18.148Z,75.19
2018-04-06T02:12:18.201Z,75.26
2018-04-06T02:13:18.171Z,75.27
2018-04-06T02:14:18.157Z,75.45
2018-04-06T02:15:18.176Z,75.54
2018-04-06T02:16:18.159Z,76.24
2018-04-06T02:17:18.157Z,75.65
2018-04-06T02:18:18.165Z,75.77
2018-04-06T02:19:18.168Z,75.92
2018-04-06T02:20:18.169Z,75.89
2018-04-06T02:21:18.179Z,75.3
2018-04-06T02:22:18.176Z,75.17
2018-04-06T02:23:18.179Z,75.32
2018-04-06T02:24:18.189Z,75.33
2018-04-06T02:25:18.182Z,75.2
2018-04-06T02:26:18.187Z,74.92
2018-04-06T02:27:18.190Z,74.56
2018-04-06T02:28:18.200Z,75.02
2018-04-06T02:29:18.283Z,75.33
2018-04-06T02:30:18.488Z,75.17
2018-04-06T02:31:18.201Z,74.9
2018-04-06T02:32:18.205Z,74.59
2018-04-06T02:33:18.212Z,74.83
2018-04-06T02:34:18.220Z,75.07
2018-04-06T02:35:18.238Z,74.71
2018-04-06T02:36:18.215Z,74.81
2018-04-06T02:37:18.221Z,74.84
2018-04-06T02:38:18.232Z,74.8
2018-04-06T02:39:18.225Z,74.83
2018-04-06T02:40:18.245Z,74.34
2018-04-06T02:41:18.236Z,74.42
2018-04-06T02:42:18.229Z,74.43
2018-04-06T02:43:18.231Z,74.35
2018-04-06T02:44:18.236Z,74.46
2018-04-06T02:45:18.237Z,74.2
2018-04-06T02:46:18.238Z,74.08
2018-04-06T02:47:18.244Z,74.68
2018-04-06T02:48:18.253Z,74.43
2018-04-06T02:49:18.250Z,74.03
2018-04-06T02:50:18.251Z,74.02
2018-04-06T02:51:18.256Z,74.34
2018-04-06T02:52:18.263Z,74.29
2018-04-06T02:53:18.265Z,74.48
2018-04-06T02:54:18.267Z,74.56
2018-04-06T02:55:18.288Z,74.98
2018-04-06T02:56:18.272Z,74.88
2018-04-06T02:57:18.277Z,74.28
2018-04-06T02:58:18.276Z,74.44
2018-04-06T02:59:18.279Z,74.35
2018-04-06T03:00:18.552Z,74.21
2018-04-06T03:01:18.287Z,74.19
2018-04-06T03:02:18.288Z,74.73
2018-04-06T03:03:18.285Z,74.15
2018-04-06T03:04:18.297Z,73.98
2018-04-06T03:05:18.318Z,74.81
2018-04-06T03:06:18.296Z,75.19
2018-04-06T03:07:18.298Z,74.83
2018-04-06T03:08:18.304Z,74.58
2018-04-06T03:09:18.326Z,74.76
2018-04-06T03:10:18.313Z,74.29
2018-04-06T03:11:18.322Z,73.87
2018-04-06T03:12:18.311Z,73.93
2018-04-06T03:13:18.321Z,74.45
2018-04-06T03:14:18.323Z,74.08
2018-04-06T03:15:18.348Z,74.29
2018-04-06T03:16:18.456Z,74.21
2018-04-06T03:17:18.331Z,73.92
2018-04-06T03:18:18.338Z,73.88
2018-04-06T03:19:18.336Z,73.85
2018-04-06T03:20:18.347Z,73.71
2018-04-06T03:21:18.366Z,73.47
2018-04-06T03:22:18.344Z,73.75
2018-04-06T03:23:18.349Z,73.7
2018-04-06T03:24:18.349Z,73.52
2018-04-06T03:25:18.354Z,73.88
2018-04-06T03:26:18.354Z,74.18
2018-04-06T03:27:18.380Z,74.07
2018-04-06T03:28:18.363Z,73.82
2018-04-06T03:29:18.369Z,73.99
2018-04-06T03:30:18.374Z,74.04
2018-04-06T03:31:18.426Z,73.83
2018-04-06T03:32:18.377Z,73.78
2018-04-06T03:33:18.376Z,73.37
2018-04-06T03:34:18.377Z,73.16
2018-04-06T03:35:18.382Z,73.21
2018-04-06T03:36:18.384Z,73.35
2018-04-06T03:37:18.385Z,73.19
2018-04-06T03:38:18.392Z,73.46
2018-04-06T03:39:18.391Z,73.58
2018-04-06T03:40:18.396Z,73.52
2018-04-06T03:41:18.398Z,73.52
2018-04-06T03:42:18.587Z,73.34
2018-04-06T03:43:18.413Z,73.57
2018-04-06T03:44:18.415Z,74.18
2018-04-06T03:45:18.416Z,73.77
2018-04-06T03:46:18.409Z,74.04
2018-04-06T03:47:18.438Z,74.38
2018-04-06T03:48:18.416Z,73.97
2018-04-06T03:49:18.423Z,73.81
2018-04-06T03:50:18.425Z,74.11
2018-04-06T03:51:18.426Z,73.68
2018-04-06T03:52:18.454Z,74.15
2018-04-06T03:53:18.435Z,74.35
2018-04-06T03:54:18.437Z,74.47
2018-04-06T03:55:18.436Z,74.1
2018-04-06T03:56:18.440Z,74.43
2018-04-06T03:57:18.447Z,74.5
2018-04-06T03:58:18.445Z,74.08
2018-04-06T03:59:18.447Z,74.34
2018-04-06T04:00:18.450Z,73.97
2018-04-06T04:01:18.452Z,74.23
2018-04-06T04:02:18.551Z,74.23
2018-04-06T04:03:18.481Z,73.97
2018-04-06T04:04:18.461Z,74.25
2018-04-06T04:05:18.464Z,74.45
2018-04-06T04:06:18.470Z,74.43
2018-04-06T04:07:18.475Z,74.48
2018-04-06T04:08:18.504Z,74.13
2018-04-06T04:09:18.484Z,74.72
2018-04-06T04:10:18.480Z,74.44
2018-04-06T04:11:18.485Z,74.24
2018-04-06T04:12:18.602Z,74.61
2018-04-06T04:13:18.514Z,74.34
2018-04-06T04:14:18.489Z,74.44
2018-04-06T04:15:18.495Z,74.32
2018-04-06T04:16:18.495Z,73.95
2018-04-06T04:17:18.497Z,73.64
2018-04-06T04:18:18.526Z,73.54
2018-04-06T04:19:18.507Z,73.89
2018-04-06T04:20:18.505Z,73.79
2018-04-06T04:21:18.508Z,74.16
2018-04-06T04:22:19.093Z,73.92
2018-04-06T04:23:18.537Z,74.23
2018-04-06T04:24:18.515Z,74.11
2018-04-06T04:25:18.518Z,73.87
2018-04-06T04:26:18.523Z,74.36
2018-04-06T04:27:18.523Z,74.31
2018-04-06T04:28:18.559Z,74.21
2018-04-06T04:29:18.534Z,74.41
2018-04-06T04:30:18.537Z,74.22
2018-04-06T04:31:18.534Z,74.55
2018-04-06T04:32:18.539Z,74.71
2018-04-06T04:33:18.591Z,74.7
2018-04-06T04:34:18.548Z,74.74
2018-04-06T04:35:18.547Z,74.47
2018-04-06T04:36:18.550Z,74.9
2018-04-06T04:37:18.549Z,74.97
2018-04-06T04:38:18.552Z,74.66
2018-04-06T04:39:18.556Z,74.82
2018-04-06T04:40:18.560Z,74.89
2018-04-06T04:41:18.569Z,74.75
2018-04-06T04:42:18.563Z,74.84
2018-04-06T04:43:18.594Z,74.47
2018-04-06T04:44:18.577Z,74.64
2018-04-06T04:45:18.574Z,74.96
2018-04-06T04:46:18.579Z,74.96
2018-04-06T04:47:18.584Z,75.21
2018-04-06T04:48:18.616Z,75.29
2018-04-06T04:49:18.583Z,75.2
2018-04-06T04:50:18.590Z,75.09
2018-04-06T04:51:18.591Z,75.12
2018-04-06T04:52:18.593Z,74.86
2018-04-06T04:53:18.604Z,74.94
2018-04-06T04:54:18.604Z,74.77
2018-04-06T04:55:18.607Z,75.07
2018-04-06T04:56:18.604Z,74.76
2018-04-06T04:57:18.607Z,74.82
2018-04-06T04:58:18.614Z,74.83
2018-04-06T04:59:18.619Z,74.87
2018-04-06T05:00:18.639Z,74.74
2018-04-06T05:01:18.620Z,74.64
2018-04-06T05:02:18.622Z,74.91
2018-04-06T05:03:18.628Z,74.95
2018-04-06T05:04:18.676Z,75.18
2018-04-06T05:05:18.651Z,74.85
2018-04-06T05:06:18.634Z,75.28
2018-04-06T05:07:18.636Z,74.9
2018-04-06T05:08:18.642Z,74.93
2018-04-06T05:09:18.646Z,75.16
2018-04-06T05:10:18.648Z,75.01
2018-04-06T05:11:18.649Z,75.52
2018-04-06T05:12:18.652Z,74.96
2018-04-06T05:13:18.657Z,75.03
2018-04-06T05:14:18.678Z,74.95
2018-04-06T05:15:18.658Z,75.04
2018-04-06T05:16:18.668Z,75.06
2018-04-06T05:17:18.664Z,75.16
2018-04-06T05:18:18.673Z,74.94
2018-04-06T05:19:18.670Z,75.07
2018-04-06T05:20:18.679Z,75.21
2018-04-06T05:21:18.681Z,74.94
2018-04-06T05:22:18.679Z,75.11
2018-04-06T05:23:18.685Z,74.92
2018-04-06T05:24:18.708Z,75.02
2018-04-06T05:25:18.693Z,74.93
2018-04-06T05:26:18.690Z,75.21
2018-04-06T05:27:18.693Z,75.05
2018-04-06T05:28:18.702Z,74.79
2018-04-06T05:29:18.698Z,75.07
2018-04-06T05:30:18.702Z,75.02
2018-04-06T05:31:18.705Z,75.36
2018-04-06T05:32:18.728Z,75.4
2018-04-06T05:33:18.709Z,75.09
2018-04-06T05:34:18.719Z,75.21
2018-04-06T05:35:18.828Z,75.14
2018-04-06T05:36:18.728Z,74.99
2018-04-06T05:37:18.730Z,75.33
2018-04-06T05:38:18.730Z,74.96
2018-04-06T05:39:18.733Z,74.92
2018-04-06T05:40:18.728Z,75.06
2018-04-06T05:41:18.737Z,75.01
2018-04-06T05:42:18.761Z,75.1
2018-04-06T05:43:18.739Z,75.11
2018-04-06T05:44:18.741Z,74.96
2018-04-06T05:45:18.746Z,75.07
2018-04-06T05:46:18.753Z,75.35
2018-04-06T05:47:18.751Z,75.14
2018-04-06T05:48:18.757Z,74.97
2018-04-06T05:49:18.760Z,75.01
2018-04-06T05:50:18.757Z,75.12
2018-04-06T05:51:18.760Z,74.77
2018-04-06T05:52:18.770Z,75.04
2018-04-06T05:53:18.769Z,74.96
2018-04-06T05:54:18.771Z,74.89
2018-04-06T05:55:18.773Z,75.22
2018-04-06T05:56:18.781Z,74.95
2018-04-06T05:57:18.798Z,75.01
2018-04-06T05:58:18.796Z,74.91
2018-04-06T05:59:18.787Z,74.78
2018-04-06T06:00:18.791Z,74.85
2018-04-06T06:01:18.798Z,74.67
2018-04-06T06:02:18.831Z,74.64
2018-04-06T06:03:18.797Z,74.98
2018-04-06T06:04:18.797Z,74.87
2018-04-06T06:05:18.804Z,74.73
2018-04-06T06:06:18.880Z,74.76
2018-04-06T06:07:18.888Z,74.61
2018-04-06T06:08:18.814Z,74.54
2018-04-06T06:09:18.820Z,74.28
2018-04-06T06:10:18.821Z,74.28
2018-04-06T06:11:18.823Z,74.35
2018-04-06T06:12:18.842Z,74.2
2018-04-06T06:13:18.830Z,74.16
2018-04-06T06:14:18.831Z,74.26
2018-04-06T06:15:18.836Z,74.28
2018-04-06T06:16:18.835Z,74.28
2018-04-06T06:17:18.854Z,74.62
2018-04-06T06:18:18.843Z,74.49
2018-04-06T06:19:18.836Z,74.41
2018-04-06T06:20:18.840Z,74.08
2018-04-06T06:21:18.852Z,74.42
2018-04-06T06:22:18.867Z,74.25
2018-04-06T06:23:18.875Z,74.17
2018-04-06T06:24:18.857Z,74
2018-04-06T06:25:18.859Z,73.9
2018-04-06T06:26:18.865Z,73.84
2018-04-06T06:27:18.890Z,73.85
2018-04-06T06:28:18.868Z,73.95
2018-04-06T06:29:18.869Z,73.84
2018-04-06T06:30:18.875Z,73.75
2018-04-06T06:31:18.885Z,73.68
2018-04-06T06:32:18.907Z,73.84
2018-04-06T06:33:18.881Z,73.81
2018-04-06T06:34:18.883Z,73.66
2018-04-06T06:35:18.887Z,73.68
2018-04-06T06:36:18.889Z,73.56
2018-04-06T06:37:18.968Z,73.58
2018-04-06T06:38:18.898Z,73.47
2018-04-06T06:39:18.903Z,73.66
2018-04-06T06:40:18.893Z,73.48
2018-04-06T06:41:18.902Z,73.32
2018-04-06T06:42:18.905Z,73.1
2018-04-06T06:43:18.908Z,73.09
2018-04-06T06:44:18.913Z,73.33
2018-04-06T06:45:18.915Z,73.32
2018-04-06T06:46:18.922Z,72.91
2018-04-06T06:47:18.918Z,72.92
2018-04-06T06:48:18.921Z,73.31
2018-04-06T06:49:18.924Z,73.28
2018-04-06T06:50:18.928Z,73.27
2018-04-06T06:51:18.936Z,73.21
2018-04-06T06:52:18.935Z,73.3
2018-04-06T06:53:18.958Z,73.2
2018-04-06T06:54:19.006Z,73.02
2018-04-06T06:55:18.943Z,72.81
2018-04-06T06:56:18.947Z,72.6
2018-04-06T06:57:18.945Z,72.67
2018-04-06T06:58:18.970Z,72.79
2018-04-06T06:59:18.957Z,72.55
2018-04-06T07:00:18.949Z,71.89
2018-04-06T07:01:18.955Z,72.4
2018-04-06T07:02:18.980Z,71.98
2018-04-06T07:03:19.140Z,72.04
2018-04-06T07:04:18.969Z,71.8
2018-04-06T07:05:18.967Z,71.55
2018-04-06T07:06:18.973Z,71.75
2018-04-06T07:07:18.977Z,72.05
2018-04-06T07:08:19.051Z,72.06
2018-04-06T07:09:18.980Z,72.08
2018-04-06T07:10:18.986Z,71.76
2018-04-06T07:11:18.987Z,71.71
2018-04-06T07:12:18.983Z,71.88
2018-04-06T07:13:18.988Z,71.56
2018-04-06T07:14:28.295Z,71.4
2018-04-06T07:15:28.297Z,71.45
2018-04-06T07:16:28.292Z,71.27
2018-04-06T07:17:28.294Z,71.07
2018-04-06T07:18:28.295Z,70.7
2018-04-06T07:19:28.296Z,70.61
2018-04-06T07:20:28.310Z,70.57
2018-04-06T07:21:28.290Z,70.13
2018-04-06T07:22:28.283Z,69.93
2018-04-06T07:23:28.288Z,69.85
2018-04-06T07:24:28.292Z,69.49
2018-04-06T07:25:28.282Z,69.57
2018-04-06T07:26:28.285Z,69.51
2018-04-06T07:27:28.281Z,69.63
2018-04-06T07:28:28.306Z,68.94
2018-04-06T07:29:28.288Z,69.3
2018-04-06T07:30:28.304Z,69.26
2018-04-06T07:31:28.268Z,68.57
2018-04-06T07:32:28.309Z,68.57
2018-04-06T07:33:28.263Z,68.62
2018-04-06T07:34:28.265Z,68.46
2018-04-06T07:35:28.261Z,68.37
2018-04-06T07:36:28.266Z,68.61
2018-04-06T07:37:28.264Z,68.5
2018-04-06T07:38:28.264Z,68.66
2018-04-06T07:39:28.274Z,68.62
2018-04-06T07:40:28.265Z,68.25
2018-04-06T07:41:28.261Z,68.3
2018-04-06T07:42:28.251Z,68.36
2018-04-06T07:43:28.272Z,68.11
2018-04-06T07:44:28.353Z,67.31
2018-04-06T07:45:28.250Z,67.63
2018-04-06T07:46:28.242Z,67.95
2018-04-06T07:47:28.259Z,67.86
2018-04-06T07:48:28.240Z,67.87
2018-04-06T07:49:28.255Z,67.66
2018-04-06T07:50:28.243Z,67.65
2018-04-06T07:51:28.266Z,67.66
2018-04-06T07:52:28.242Z,67.68
2018-04-06T07:53:28.247Z,67.55
2018-04-06T07:54:28.220Z,67.42
2018-04-06T07:55:28.228Z,67.32
2018-04-06T07:56:28.239Z,67.27
2018-04-06T07:57:28.224Z,66.34
2018-04-06T07:58:28.225Z,66.21
2018-04-06T07:59:28.222Z,66.24
2018-04-06T08:00:28.217Z,66.74
2018-04-06T08:01:28.223Z,66.34
2018-04-06T08:02:28.219Z,66.55
2018-04-06T08:03:28.260Z,66.2
2018-04-06T08:04:28.217Z,66.11
2018-04-06T08:05:28.219Z,66.14
2018-04-06T08:06:28.216Z,66
2018-04-06T08:07:28.212Z,66.11
2018-04-06T08:08:28.244Z,66.44
2018-04-06T08:09:28.220Z,65.81
2018-04-06T08:10:28.204Z,65.33
2018-04-06T08:11:28.213Z,65.53
2018-04-06T08:12:28.338Z,65.74
2018-04-06T08:13:28.247Z,65.63
2018-04-06T08:14:28.202Z,65.68
2018-04-06T08:15:28.290Z,64.74
2018-04-06T08:16:28.206Z,65
2018-04-06T08:17:28.193Z,65.08
2018-04-06T08:18:28.222Z,64.93
2018-04-06T08:19:28.200Z,64.42
2018-04-06T08:20:28.193Z,64.04
2018-04-06T08:21:28.196Z,64.18
2018-04-06T08:22:28.190Z,64.15
2018-04-06T08:23:28.217Z,63.24
2018-04-06T08:24:28.185Z,63.97
2018-04-06T08:25:28.183Z,62.91
2018-04-06T08:26:28.230Z,63.25
2018-04-06T08:27:28.177Z,63.15
2018-04-06T08:28:28.234Z,63.74
2018-04-06T08:29:28.188Z,63.64
2018-04-06T08:30:28.171Z,63.67
2018-04-06T08:31:28.185Z,63.21
2018-04-06T08:32:28.172Z,62.84
2018-04-06T08:33:28.175Z,63.19
2018-04-06T08:34:28.182Z,62.66
2018-04-06T08:35:28.176Z,62.65
2018-04-06T08:36:28.168Z,61.44
2018-04-06T08:37:28.175Z,61.37
2018-04-06T08:38:28.180Z,61.06
2018-04-06T08:39:28.192Z,62.03
2018-04-06T08:40:28.174Z,62.02
2018-04-06T08:41:28.165Z,61.75
2018-04-06T08:42:28.234Z,62.25
2018-04-06T08:43:28.162Z,62.12
2018-04-06T08:44:28.154Z,61.57
2018-04-06T08:45:28.154Z,61.83
2018-04-06T08:46:28.211Z,61.46
2018-04-06T08:47:28.161Z,61.02
2018-04-06T08:48:28.142Z,60.79
2018-04-06T08:49:28.156Z,60.88
2018-04-06T08:50:28.150Z,60.58
2018-04-06T08:51:28.148Z,60.63
2018-04-06T08:52:28.141Z,59.83
2018-04-06T08:53:28.162Z,60.94
2018-04-06T08:54:28.163Z,60.81
2018-04-06T08:55:28.124Z,61.01
2018-04-06T08:56:28.130Z,60.39
2018-04-06T08:57:28.135Z,60.55
2018-04-06T08:58:28.128Z,59.76
2018-04-06T08:59:28.132Z,59.65
2018-04-06T09:00:28.120Z,59.49
2018-04-06T09:01:28.124Z,61.08
2018-04-06T09:02:28.131Z,60.13
2018-04-06T09:03:28.132Z,60.12
2018-04-06T09:04:28.149Z,59.55
2018-04-06T09:05:28.114Z,59.22
2018-04-06T09:06:28.128Z,58.49
2018-04-06T09:07:28.301Z,59.03
2018-04-06T09:08:28.111Z,59.26
2018-04-06T09:09:28.107Z,59.49
2018-04-06T09:10:28.125Z,59.18
2018-04-06T09:11:28.101Z,59.18
2018-04-06T09:12:28.115Z,58.81
2018-04-06T09:13:28.106Z,58.89
2018-04-06T09:14:28.125Z,59.33
2018-04-06T09:15:28.096Z,59.11
2018-04-06T09:16:28.129Z,58.99
2018-04-06T09:17:28.183Z,59.55
2018-04-06T09:18:28.107Z,57.81
2018-04-06T09:19:28.129Z,58.12
2018-04-06T09:20:28.107Z,57.49
2018-04-06T09:21:28.094Z,57.69
2018-04-06T09:22:28.094Z,57.79
2018-04-06T09:23:28.092Z,57.81
2018-04-06T09:24:28.112Z,56.88
2018-04-06T09:25:28.087Z,57.2
2018-04-06T09:26:28.088Z,57.04
2018-04-06T09:27:28.102Z,56.72
2018-04-06T09:28:28.084Z,56.39
2018-04-06T09:29:28.095Z,56.16
2018-04-06T09:30:28.081Z,55.91
2018-04-06T09:31:28.086Z,56.65
2018-04-06T09:32:28.089Z,56.61
2018-04-06T09:33:28.076Z,55.74
2018-04-06T09:34:28.125Z,56.1
2018-04-06T09:35:28.089Z,56.14
2018-04-06T09:36:28.072Z,55.75
2018-04-06T09:37:28.089Z,55.63
2018-04-06T09:38:28.071Z,55.88
2018-04-06T09:39:28.067Z,55.8
2018-04-06T09:40:28.066Z,55.67
2018-04-06T09:41:28.071Z,56.39
2018-04-06T09:42:28.059Z,56.17
2018-04-06T09:43:28.090Z,55.43
2018-04-06T09:44:28.048Z,55.37
2018-04-06T09:45:28.052Z,55.45
2018-04-06T09:46:28.056Z,55.24
2018-04-06T09:47:28.058Z,57.3
2018-04-06T09:48:28.286Z,55.64
2018-04-06T09:49:28.052Z,55.54
2018-04-06T09:50:28.060Z,55.07
2018-04-06T09:51:28.051Z,53.97
2018-04-06T09:52:28.045Z,54.49
2018-04-06T09:53:28.068Z,54.47
2018-04-06T09:54:28.033Z,52.92
2018-04-06T09:55:28.032Z,54.03
2018-04-06T09:56:28.032Z,53.72
2018-04-06T09:57:28.042Z,54.03
2018-04-06T09:58:28.055Z,54.51
2018-04-06T09:59:28.035Z,53.87
2018-04-06T10:00:28.030Z,53.12
2018-04-06T10:01:28.041Z,53.42
2018-04-06T10:02:28.034Z,53.04
2018-04-06T10:03:28.055Z,51.68
2018-04-06T10:04:28.029Z,52.57
2018-04-06T10:05:28.039Z,52.29
2018-04-06T10:06:28.017Z,52.44
2018-04-06T10:07:28.034Z,52.03
2018-04-06T10:08:28.040Z,52.01
2018-04-06T10:09:28.019Z,52.2
2018-04-06T10:10:28.025Z,52.51
2018-04-06T10:11:28.020Z,52.19
2018-04-06T10:12:28.020Z,52.43
2018-04-06T10:13:28.025Z,52.23
2018-04-06T10:14:28.019Z,52.22
2018-04-06T10:15:28.006Z,50.97
2018-04-06T10:16:28.000Z,51.75
2018-04-06T10:17:28.008Z,51.18
2018-04-06T10:18:28.025Z,50.61
2018-04-06T10:19:28.053Z,50.83
2018-04-06T10:20:28.021Z,50.04
2018-04-06T10:21:28.108Z,50.1
2018-04-06T10:22:27.996Z,50.88
2018-04-06T10:23:27.997Z,51.23
2018-04-06T10:24:27.997Z,50.5
2018-04-06T10:25:28.002Z,49.48
2018-04-06T10:26:27.988Z,50.72
2018-04-06T10:27:27.995Z,49.54
2018-04-06T10:28:27.998Z,49.1
2018-04-06T10:29:28.011Z,49.31
2018-04-06T10:30:28.002Z,49.9
2018-04-06T10:31:27.983Z,48.63
2018-04-06T10:32:27.983Z,49.77
2018-04-06T10:33:27.990Z,49.41
2018-04-06T10:34:28.007Z,49.55
2018-04-06T10:35:27.981Z,49.63
2018-04-06T10:36:27.973Z,49.6
2018-04-06T10:37:27.987Z,49.92
2018-04-06T10:38:27.983Z,50.02
2018-04-06T10:39:27.991Z,50.05
2018-04-06T10:40:28.009Z,49.62
2018-04-06T10:41:28.101Z,50.18
2018-04-06T10:42:27.964Z,49.73
2018-04-06T10:43:27.976Z,49.56
2018-04-06T10:44:27.966Z,49.05
2018-04-06T10:45:27.946Z,48.73
2018-04-06T10:46:28.167Z,49.25
2018-04-06T10:47:27.956Z,48.44
2018-04-06T10:48:27.976Z,48.75
2018-04-06T10:49:27.952Z,49.02
2018-04-06T10:50:27.989Z,48.53
2018-04-06T10:51:27.961Z,49.85
2018-04-06T10:52:27.964Z,48.33
2018-04-06T10:53:27.997Z,48.94
2018-04-06T10:54:27.954Z,48.06
2018-04-06T10:55:27.948Z,47.06
2018-04-06T10:56:28.004Z,47.57
2018-04-06T10:57:28.101Z,47.75
2018-04-06T10:58:27.977Z,48.14
2018-04-06T10:59:27.947Z,47.78
2018-04-06T11:00:27.957Z,48.21
2018-04-06T11:01:27.954Z,47.94
2018-04-06T11:02:27.958Z,48.13
2018-04-06T11:03:27.964Z,48.16
2018-04-06T11:04:27.946Z,48.09
2018-04-06T11:05:27.976Z,48.08
2018-04-06T11:06:27.940Z,48.25
2018-04-06T11:07:28.114Z,47.39
2018-04-06T11:08:27.930Z,47.46
2018-04-06T11:09:27.925Z,48.7
2018-04-06T11:10:27.927Z,48.67
2018-04-06T11:11:28.060Z,48.34
2018-04-06T11:12:27.930Z,47.37
2018-04-06T11:13:27.919Z,46.83
2018-04-06T11:14:28.081Z,47.37
2018-04-06T11:15:27.918Z,46.26
2018-04-06T11:16:28.095Z,45.95
2018-04-06T11:17:27.909Z,46.33
2018-04-06T11:18:28.968Z,47.34
2018-04-06T11:19:27.941Z,46.85
2018-04-06T11:20:27.980Z,46.21
2018-04-06T11:21:28.107Z,47.01
2018-04-06T11:22:28.497Z,46.65
2018-04-06T11:23:27.921Z,47.03
2018-04-06T11:24:28.001Z,45.8
2018-04-06T11:25:27.898Z,45.6
2018-04-06T11:26:28.182Z,46.01
2018-04-06T11:27:27.985Z,46.47
2018-04-06T11:28:27.902Z,46.42
2018-04-06T11:29:27.893Z,46.4
2018-04-06T11:30:27.916Z,46.31
2018-04-06T11:31:27.952Z,46.37
2018-04-06T11:32:27.913Z,46.7
2018-04-06T11:33:28.269Z,46.77
2018-04-06T11:34:27.910Z,46.89
2018-04-06T11:35:27.952Z,47.1
2018-04-06T11:36:27.910Z,46.42
2018-04-06T11:37:27.936Z,45.78
2018-04-06T11:38:27.884Z,45.77
2018-04-06T11:39:27.893Z,44.86
2018-04-06T11:40:27.882Z,45.11
2018-04-06T11:41:27.900Z,44.49
2018-04-06T11:42:27.901Z,44.95
2018-04-06T11:43:27.884Z,44.94
2018-04-06T11:44:27.876Z,45.11
2018-04-06T11:45:27.922Z,44.65
2018-04-06T11:46:27.876Z,44.88
2018-04-06T11:47:27.871Z,44.94
2018-04-06T11:48:27.883Z,44.82
2018-04-06T11:49:27.873Z,45.76
2018-04-06T11:50:27.869Z,44.65
2018-04-06T11:51:29.682Z,44.96
2018-04-06T11:52:27.864Z,45.15
2018-04-06T11:53:27.871Z,45.3
2018-04-06T11:54:27.887Z,45.22
2018-04-06T11:55:27.867Z,45.58
2018-04-06T11:56:27.873Z,45.4
2018-04-06T11:57:27.876Z,44.66
2018-04-06T11:58:27.853Z,44.55
2018-04-06T11:59:27.878Z,45.17
2018-04-06T12:00:27.859Z,44.95
2018-04-06T12:01:27.859Z,43.81
2018-04-06T12:02:27.850Z,43.81
2018-04-06T12:03:27.849Z,43.51
2018-04-06T12:04:27.876Z,44.15
2018-04-06T12:05:27.856Z,44.71
2018-04-06T12:06:27.854Z,43.98
2018-04-06T12:07:27.842Z,44.37
2018-04-06T12:08:27.848Z,44.12
2018-04-06T12:09:27.858Z,43.64
2018-04-06T12:10:27.866Z,43.84
2018-04-06T12:11:27.828Z,43.95
2018-04-06T12:12:27.841Z,43.25
2018-04-06T12:13:27.832Z,44.16
2018-04-06T12:14:27.857Z,43.93
2018-04-06T12:15:27.840Z,43.97
2018-04-06T12:16:27.836Z,45.01
2018-04-06T12:17:27.825Z,44.78
2018-04-06T12:18:27.833Z,44.29
2018-04-06T12:19:27.826Z,43.23
2018-04-06T12:20:27.824Z,42.75
2018-04-06T12:21:27.856Z,43.08
2018-04-06T12:22:27.882Z,43.2
2018-04-06T12:23:27.815Z,43.28
2018-04-06T12:24:27.821Z,42.42
2018-04-06T12:25:27.822Z,42.18
2018-04-06T12:26:27.831Z,42.43
2018-04-06T12:27:27.817Z,43.04
2018-04-06T12:28:27.814Z,43.13
2018-04-06T12:29:27.808Z,41.97
2018-04-06T12:30:27.825Z,42.15
2018-04-06T12:31:27.814Z,42.13
2018-04-06T12:32:27.811Z,42.25
2018-04-06T12:33:27.802Z,42.75
2018-04-06T12:34:27.799Z,43.15
2018-04-06T12:35:28.139Z,42.65
2018-04-06T12:36:27.803Z,42.25
2018-04-06T12:37:27.805Z,41.99
2018-04-06T12:38:27.815Z,41.53
2018-04-06T12:39:27.815Z,42.08
2018-04-06T12:40:27.813Z,42.45
2018-04-06T12:41:27.811Z,41.78
2018-04-06T12:42:27.792Z,41.93
2018-04-06T12:43:27.801Z,40.74
2018-04-06T12:44:27.791Z,41.58
2018-04-06T12:45:27.808Z,42.33
2018-04-06T12:46:27.817Z,41.95
2018-04-06T12:47:27.791Z,42.2
2018-04-06T12:48:27.794Z,41.43
2018-04-06T12:49:27.798Z,41.62
2018-04-06T12:50:27.815Z,41.23
2018-04-06T12:51:27.785Z,41.53
2018-04-06T12:52:27.797Z,41.88
2018-04-06T12:53:27.861Z,41.3
2018-04-06T12:54:27.788Z,41